Licenciado Gustavo Díaz Ordaz International Airport
MMPR : now visible

Airfield :











YOU CAN JOIN US ON...

 
LOGIN :

Register | Disclaimer

   EN    FR    IT 

 









Legend :    VFR   Marginal VFR   IFR   Intensive IFR   Very Intensive IFR
Visi :
Ceiling :
>= 8 km
>= 3000ft
5 to 8 km
1000 to 3000 ft
1500m to 5 km
500 to 1000 ft
800 to 1500m
200 to 500 ft
< 800m
< 200 ft
Symbols :   Thunderstorms  Fog  Heavy snow  Heavy precipitations  Wind > 20 kt






- Airport Elevation : 23 ft
- IATA code : PVR


MMPR - Licenciado Gustavo Díaz Ordaz International

CURRENT METAR :
  • 250246Z 00000KT 10SM SCT025 BKN035CB 27/24 A2986 RMK SLP110 52017 951 8/300

EXPIRED METARs :
  • 250149Z 28004KT 10SM SCT015 BKN030CB 28/24 A2984 RMK 8/300 LWR CLDS VSBY 4TH 1ST QUAD DSNT PCPN SW
  • 250047Z 24007KT 10SM SCT020 BKN035CB OVC070 28/26 A2983 RMK 8/37/ BINOVC LWR CLDS VSBY N
  • 242346Z 18012KT 12SM FEW025TCU BKN035 OVC070 29/25 A2981 RMK SLP093 57008 957 8/27/ BINOVC DSNT PCPN N CB NE
  • 242246Z 19009KT 12SM SCT035 BKN070 29/24 A2981 RMK 8/870 DSNT CB NE

TAF TAF MMPR
Valid from the 25 at 00:00 until the 26 at 00:00 UTC


242311Z 2500/2600 19010KT P6SM SCT035 BKN070 TX30/2520Z TN24/2504Z
FM250200 34005KT 5SM RA OVC020
TEMPO 2502/2506 2SM TSRA OVC010CB
FM251500 00000KT 6SM HZ BKN020 OVC100
FM251800 24010KT P6SM BKN020 BKN100
TEMPO 2520/2524 5SM RA
MMFR FIR / North America



MET'MAP, your aeronautical weather chart ! - Copyright ORBIFLY December 2007 - Disclaimer

ORBIFLY MET'MAP TEAM :

Programming & Development : Alexandra Zaïnal
Original concept : Baudouin d'Aumeries
Technical & hardware support : Manuel Goepfert
Assistance : Marc-Olivier Méhu




SOURCES & CREDITS :

   NOAA       Earth
Advisory